createdAt,value
2023-06-07T00:01:57.471Z,99143.78
2023-06-07T00:06:03.911Z,99264.34
2023-06-07T00:10:08.198Z,99251.72
2023-06-07T00:14:12.836Z,99213.50
2023-06-07T00:18:16.566Z,99099.47
2023-06-07T00:22:19.770Z,99218.63
2023-06-07T00:26:22.790Z,99229.63
2023-06-07T00:30:27.292Z,99179.72
2023-06-07T00:34:30.543Z,99162.78
2023-06-07T00:38:33.707Z,99112.84
2023-06-07T00:42:36.979Z,99130.00
2023-06-07T00:46:41.415Z,99218.38
2023-06-07T00:50:44.642Z,99211.66
2023-06-07T00:54:47.652Z,99085.16
2023-06-07T00:58:50.865Z,99158.28
2023-06-07T01:02:56.978Z,99256.28
2023-06-07T01:07:02.936Z,99102.75
2023-06-07T01:11:06.595Z,99125.56
2023-06-07T01:15:10.425Z,99262.19
2023-06-07T01:19:22.502Z,99197.97
2023-06-07T01:23:32.847Z,99210.56
2023-06-07T01:27:38.394Z,99209.78
2023-06-07T01:31:42.375Z,99154.88
2023-06-07T01:35:47.185Z,99088.94
2023-06-07T01:39:52.964Z,99264.09
2023-06-07T01:43:56.019Z,99251.75
2023-06-07T01:47:59.300Z,99100.53
2023-06-07T01:52:02.662Z,99218.38
2023-06-07T01:56:16.245Z,99244.81
2023-06-07T02:00:26.038Z,99094.94
2023-06-07T02:04:31.265Z,99125.97
2023-06-07T02:08:36.334Z,99084.22
2023-06-07T02:12:42.044Z,99193.34
2023-06-07T02:16:45.064Z,99227.66
2023-06-07T02:20:48.323Z,99159.94
2023-06-07T02:24:51.452Z,99164.97
2023-06-07T02:28:56.188Z,99099.03
2023-06-07T02:32:59.348Z,99095.25
2023-06-07T02:37:02.772Z,99251.19
2023-06-07T02:41:05.696Z,99181.94
2023-06-07T02:45:11.544Z,99187.31
2023-06-07T02:49:14.736Z,99097.50
2023-06-07T02:53:17.786Z,99092.78
2023-06-07T02:57:20.879Z,99158.16
2023-06-07T03:01:29.007Z,99153.31
2023-06-07T03:05:32.472Z,99082.16
2023-06-07T03:09:35.523Z,99115.34
2023-06-07T03:13:38.635Z,99066.13
2023-06-07T03:17:44.488Z,99117.69
2023-06-07T03:21:47.612Z,99102.50
2023-06-07T03:25:50.893Z,99125.50
2023-06-07T03:29:55.198Z,99233.00
2023-06-07T03:33:59.804Z,99090.47
2023-06-07T03:38:02.751Z,99232.78
2023-06-07T03:42:06.777Z,99247.22
2023-06-07T03:46:09.957Z,99253.56
2023-06-07T03:50:14.593Z,99246.88
2023-06-07T03:54:17.545Z,99196.03
2023-06-07T03:58:20.618Z,99213.94
2023-06-07T04:02:23.677Z,99238.16
2023-06-07T04:06:30.156Z,99259.38
2023-06-07T04:10:33.172Z,99237.22
2023-06-07T04:14:36.314Z,99112.09
2023-06-07T04:18:39.707Z,99135.38
2023-06-07T04:22:44.123Z,99206.63
2023-06-07T04:26:49.425Z,99165.31
2023-06-07T04:30:53.176Z,99097.34
2023-06-07T04:34:57.386Z,99101.19
2023-06-07T04:39:02.762Z,99232.34
2023-06-07T04:43:06.959Z,99174.50
2023-06-07T04:47:13.325Z,99162.78
2023-06-07T04:51:21.861Z,99081.91
2023-06-07T04:55:26.816Z,99121.50
2023-06-07T04:59:36.404Z,99162.16
2023-06-07T05:04:08.877Z,99262.03
2023-06-07T05:08:12.000Z,99200.19
2023-06-07T05:12:16.610Z,99198.03
2023-06-07T05:16:20.356Z,99208.53
2023-06-07T05:20:26.318Z,99111.59
2023-06-07T05:24:30.420Z,99129.38
2023-06-07T05:28:34.945Z,99166.81
2023-06-07T05:32:38.890Z,99120.56
2023-06-07T05:36:41.872Z,99189.59
2023-06-07T05:40:45.674Z,99133.97
2023-06-07T05:44:51.134Z,99210.34
2023-06-07T05:48:54.029Z,99121.13
2023-06-07T05:52:58.799Z,99256.06
2023-06-07T05:57:02.561Z,99159.34
2023-06-07T06:01:08.483Z,99219.69
2023-06-07T06:05:11.723Z,99235.75
2023-06-07T06:09:14.778Z,99254.13
2023-06-07T06:13:17.955Z,99199.97
2023-06-07T06:17:22.378Z,99199.69
2023-06-07T06:21:25.649Z,99213.88
2023-06-07T06:25:29.971Z,99165.56
2023-06-07T06:29:32.745Z,99197.88
2023-06-07T06:33:37.575Z,99264.97
2023-06-07T06:37:41.013Z,99159.03
2023-06-07T06:41:44.092Z,99249.44
2023-06-07T06:45:48.223Z,99173.16
2023-06-07T06:49:54.742Z,99223.91
2023-06-07T06:53:57.707Z,99199.56
2023-06-07T06:58:01.591Z,99231.00
2023-06-07T07:02:05.023Z,99187.28
2023-06-07T07:06:13.666Z,99253.22
2023-06-07T07:10:18.040Z,99251.63
2023-06-07T07:14:21.034Z,99227.19
2023-06-07T07:18:24.161Z,99241.34
2023-06-07T07:22:29.228Z,99209.78
2023-06-07T07:26:32.332Z,99195.50
2023-06-07T07:30:36.431Z,99193.13
2023-06-07T07:34:41.786Z,99165.56
2023-06-07T07:38:47.469Z,99255.06
2023-06-07T07:42:51.066Z,99205.31
2023-06-07T07:46:54.005Z,99277.72
2023-06-07T07:50:57.643Z,99210.91
2023-06-07T07:55:04.083Z,99262.75
2023-06-07T07:59:07.376Z,99272.94
2023-06-07T08:03:10.609Z,99272.66
2023-06-07T08:07:16.604Z,99241.38
2023-06-07T08:11:22.231Z,99249.69
2023-06-07T08:15:25.214Z,99239.94
2023-06-07T08:19:28.633Z,99266.91
2023-06-07T08:23:31.537Z,99231.56
2023-06-07T08:27:35.859Z,99227.38
2023-06-07T08:31:44.669Z,99210.91
2023-06-07T08:35:47.973Z,99217.44
2023-06-07T08:39:50.897Z,99208.41
2023-06-07T08:43:55.190Z,99159.94
2023-06-07T08:47:59.660Z,99203.47
2023-06-07T08:52:15.337Z,99218.59
2023-06-07T08:56:20.322Z,99218.69
2023-06-07T09:00:25.500Z,99187.44
2023-06-07T09:04:29.086Z,99177.94
2023-06-07T09:08:32.173Z,99226.00
2023-06-07T09:12:35.178Z,99222.22
2023-06-07T09:16:56.494Z,99238.34
2023-06-07T09:20:59.709Z,99247.13
2023-06-07T09:25:09.069Z,99226.63
2023-06-07T09:29:13.128Z,99223.50
2023-06-07T09:33:27.536Z,99240.72
2023-06-07T09:37:42.876Z,99233.28
2023-06-07T09:41:45.749Z,99190.63
2023-06-07T09:45:55.361Z,99227.34
2023-06-07T09:50:14.108Z,99209.06
2023-06-07T09:54:17.498Z,99217.81
2023-06-07T09:58:22.240Z,99225.59
2023-06-07T10:02:26.494Z,99220.63
2023-06-07T10:06:32.119Z,99204.75
2023-06-07T10:10:36.273Z,99181.41
2023-06-07T10:14:41.511Z,99202.72
2023-06-07T10:18:45.077Z,99160.28
2023-06-07T10:22:50.068Z,99188.78
2023-06-07T10:26:56.199Z,99161.25
2023-06-07T10:31:07.385Z,99173.13
2023-06-07T10:35:14.529Z,99200.53
2023-06-07T10:39:20.234Z,99168.19
2023-06-07T10:43:23.084Z,99183.91
2023-06-07T10:47:27.726Z,99174.81
2023-06-07T10:52:03.107Z,99179.59
2023-06-07T10:56:38.234Z,99189.50
2023-06-07T11:00:44.104Z,99173.41
2023-06-07T11:04:58.349Z,99116.69
2023-06-07T11:09:23.543Z,99126.72
2023-06-07T11:13:26.450Z,99172.13
2023-06-07T11:17:52.629Z,99188.69
2023-06-07T11:22:05.650Z,99156.78
2023-06-07T11:26:10.878Z,99184.50
2023-06-07T11:30:14.549Z,99175.81
2023-06-07T11:34:18.870Z,99135.94
2023-06-07T11:38:22.668Z,99129.59
2023-06-07T11:42:26.519Z,99161.66
2023-06-07T11:46:33.921Z,99167.09
2023-06-07T11:50:39.576Z,99129.94
2023-06-07T11:54:44.558Z,99171.03
2023-06-07T11:59:07.785Z,99185.19
2023-06-07T12:03:11.883Z,99153.06
2023-06-07T12:07:23.554Z,99157.00
2023-06-07T12:11:27.401Z,99159.84
2023-06-07T12:15:31.891Z,99156.19
2023-06-07T12:19:35.084Z,99108.59
2023-06-07T12:23:40.894Z,99168.47
2023-06-07T12:27:46.608Z,99173.94
2023-06-07T12:31:53.381Z,99167.16
2023-06-07T12:35:58.933Z,99114.91
2023-06-07T12:40:03.566Z,99161.78
2023-06-07T12:44:08.764Z,99161.03
2023-06-07T12:48:12.634Z,99144.81
2023-06-07T12:52:16.100Z,99063.31
2023-06-07T12:56:20.843Z,99095.72
2023-06-07T13:00:24.713Z,99100.06
2023-06-07T13:04:30.772Z,99107.34
2023-06-07T13:08:33.988Z,99100.19
2023-06-07T13:12:39.004Z,99109.78
2023-06-07T13:16:42.099Z,99088.31
2023-06-07T13:20:52.812Z,99081.75
2023-06-07T13:24:56.838Z,99099.84
2023-06-07T13:29:01.796Z,99088.88
2023-06-07T13:33:05.114Z,99078.34
2023-06-07T13:37:14.943Z,99073.19
2023-06-07T13:41:17.836Z,99077.34
2023-06-07T13:45:22.290Z,99043.50
2023-06-07T13:49:25.067Z,99063.88
2023-06-07T13:53:31.143Z,99051.41
2023-06-07T13:57:37.008Z,99033.16
2023-06-07T14:01:41.869Z,99072.22
2023-06-07T14:05:55.022Z,99010.88
2023-06-07T14:09:57.886Z,99045.31
2023-06-07T14:14:01.372Z,99049.03
2023-06-07T14:18:06.551Z,99055.56
2023-06-07T14:22:09.970Z,99002.56
2023-06-07T14:26:12.967Z,99031.19
2023-06-07T14:30:17.769Z,98953.97
2023-06-07T14:34:21.977Z,99012.53
2023-06-07T14:38:25.794Z,99039.16
2023-06-07T14:42:28.739Z,98999.22
2023-06-07T14:46:32.067Z,99010.06
2023-06-07T14:50:36.967Z,99025.63
2023-06-07T14:54:41.311Z,98951.56
2023-06-07T14:58:45.410Z,99019.03
2023-06-07T15:02:48.624Z,98994.44
2023-06-07T15:06:53.191Z,99005.47
2023-06-07T15:10:59.262Z,98967.06
2023-06-07T15:15:02.777Z,98936.25
2023-06-07T15:19:05.714Z,99018.34
2023-06-07T15:23:10.387Z,98998.38
2023-06-07T15:27:13.528Z,98986.34
2023-06-07T15:31:16.532Z,99006.59
2023-06-07T15:35:19.457Z,98992.59
2023-06-07T15:39:24.392Z,99012.59
2023-06-07T15:43:27.363Z,98969.41
2023-06-07T15:47:33.137Z,98939.16
2023-06-07T15:51:36.112Z,98901.19
2023-06-07T15:55:42.963Z,98919.41
2023-06-07T15:59:46.012Z,98930.03
2023-06-07T16:03:56.749Z,98889.69
2023-06-07T16:08:04.690Z,98940.06
2023-06-07T16:12:13.735Z,98984.91
2023-06-07T16:16:22.100Z,98959.19
2023-06-07T16:20:28.607Z,98920.97
2023-06-07T16:24:31.502Z,98936.06
2023-06-07T16:28:36.170Z,98992.50
2023-06-07T16:32:39.756Z,98971.44
2023-06-07T16:36:58.208Z,98993.88
2023-06-07T16:41:01.146Z,98991.47
2023-06-07T16:45:06.824Z,98880.78
2023-06-07T16:49:17.596Z,98979.59
2023-06-07T16:53:20.616Z,98953.28
2023-06-07T16:57:26.083Z,98985.13
2023-06-07T17:01:32.249Z,98940.38
2023-06-07T17:05:37.475Z,98973.22
2023-06-07T17:09:40.489Z,98979.25
2023-06-07T17:13:45.048Z,98957.31
2023-06-07T17:17:49.725Z,98943.16
2023-06-07T17:21:52.947Z,98970.59
2023-06-07T17:25:55.936Z,98969.63
2023-06-07T17:30:00.406Z,98940.63
2023-06-07T17:34:12.794Z,98913.03
2023-06-07T17:38:17.749Z,98922.44
2023-06-07T17:42:22.535Z,98959.81
2023-06-07T17:46:26.369Z,98995.28
2023-06-07T17:50:45.382Z,98992.88
2023-06-07T17:54:49.081Z,98992.97
2023-06-07T17:58:52.560Z,98998.53
2023-06-07T18:02:56.185Z,98985.63
2023-06-07T18:07:03.819Z,98987.06
2023-06-07T18:11:08.422Z,98995.69
2023-06-07T18:15:11.939Z,99001.59
2023-06-07T18:19:14.957Z,99000.38
2023-06-07T18:23:20.694Z,98995.06
2023-06-07T18:27:24.122Z,98997.53
2023-06-07T18:31:26.908Z,98984.69
2023-06-07T18:35:29.945Z,98985.81
2023-06-07T18:39:35.182Z,98999.09
2023-06-07T18:43:40.356Z,99003.47
2023-06-07T18:47:43.184Z,99008.34
2023-06-07T18:51:45.868Z,99010.13
2023-06-07T18:55:50.022Z,99006.28
2023-06-07T18:59:52.712Z,99011.66
2023-06-07T19:03:58.711Z,99011.19
2023-06-07T19:08:01.884Z,99021.78
2023-06-07T19:12:07.886Z,99012.97
2023-06-07T19:16:10.753Z,99031.47
2023-06-07T19:20:14.815Z,99039.81
2023-06-07T19:24:17.648Z,99031.56
2023-06-07T19:28:21.833Z,99032.53
2023-06-07T19:32:24.593Z,99035.53
2023-06-07T19:36:31.301Z,99035.13
2023-06-07T19:40:35.659Z,99041.66
2023-06-07T19:44:41.129Z,98989.81
2023-06-07T19:48:46.949Z,99049.00
2023-06-07T19:52:49.773Z,99051.63
2023-06-07T19:56:52.494Z,99060.16
2023-06-07T20:00:57.026Z,99065.22
2023-06-07T20:05:00.478Z,99059.41
2023-06-07T20:09:03.270Z,99070.25
2023-06-07T20:13:06.245Z,99082.06
2023-06-07T20:17:11.202Z,99084.44
2023-06-07T20:21:13.904Z,99086.09
2023-06-07T20:25:17.656Z,99083.19
2023-06-07T20:29:20.657Z,99091.19
2023-06-07T20:33:24.867Z,99099.56
2023-06-07T20:37:27.712Z,99099.59
2023-06-07T20:41:30.607Z,99094.25
2023-06-07T20:45:33.486Z,99084.00
2023-06-07T20:49:37.707Z,99096.94
2023-06-07T20:53:40.397Z,99089.91
2023-06-07T20:57:43.152Z,99090.75
2023-06-07T21:01:45.932Z,99094.50
2023-06-07T21:05:50.161Z,99099.94
2023-06-07T21:09:52.854Z,99091.81
2023-06-07T21:13:55.628Z,99097.72
2023-06-07T21:17:58.391Z,99097.63
2023-06-07T21:22:02.630Z,99085.63
2023-06-07T21:26:06.883Z,99099.41
2023-06-07T21:30:10.327Z,99056.59
2023-06-07T21:34:14.100Z,99093.97
2023-06-07T21:38:18.482Z,99091.19
2023-06-07T21:42:22.186Z,99087.69
2023-06-07T21:46:28.031Z,99093.50
2023-06-07T21:50:31.143Z,99098.75
2023-06-07T21:54:43.594Z,99100.38
2023-06-07T21:58:46.710Z,99101.78
2023-06-07T22:02:49.426Z,99100.19
2023-06-07T22:06:52.399Z,99104.59
2023-06-07T22:10:57.137Z,99095.41
2023-06-07T22:15:01.797Z,99089.22
2023-06-07T22:19:04.690Z,99096.16
2023-06-07T22:23:08.587Z,99096.63
2023-06-07T22:27:13.294Z,99099.03
2023-06-07T22:31:16.708Z,99089.84
2023-06-07T22:35:19.875Z,99100.03
2023-06-07T22:39:22.704Z,99115.59
2023-06-07T22:43:26.842Z,99102.50
2023-06-07T22:47:31.125Z,99094.28
2023-06-07T22:51:35.471Z,99092.06
2023-06-07T22:55:38.600Z,99100.69
2023-06-07T22:59:43.499Z,99101.09
2023-06-07T23:03:46.552Z,99098.97
2023-06-07T23:07:50.638Z,99104.41
2023-06-07T23:11:54.104Z,99107.63
2023-06-07T23:15:58.530Z,99080.28
2023-06-07T23:20:01.572Z,99106.31
2023-06-07T23:24:05.939Z,99103.09
2023-06-07T23:28:08.826Z,99082.78
2023-06-07T23:32:13.364Z,99095.38
2023-06-07T23:36:17.518Z,99087.03
2023-06-07T23:40:20.629Z,99091.34
2023-06-07T23:44:27.390Z,99092.06
2023-06-07T23:48:32.311Z,99083.88
2023-06-07T23:52:36.159Z,99090.13
2023-06-07T23:56:39.656Z,99083.72
